Latest Coastal Weather Observations for Brisbane Airport

IDQ60701

Issued at 2:21 pm EST Thursday 29 January 2015 (issued every 10 minutes, with the page automatically refreshed every 10 minutes)

About coastal observations | Map of coastal stations | Coastal observations for QLD | Marine services | Other Formats
Station Details ID: 040842 Name: BRISBANE AERO Lat: -27.39 Lon: 153.13 Height: 4.51 m
Data from the previous 72 hours. | See also: Recent months at Brisbane Airport
Date/Time
EST
Temp

°C
Wind Pressure Rain
since 9am
mm
Weather Cloud Vis
km
Sea
Height
m
Swell
Dir
 
Speed
knots
Gust
knots
hPa Trend Height
m
Period
s
Dir
29/02:00pm 26.7 ESE 11 17 1007.0 - 0.0 - Mostly clear 10 - - - -
29/01:30pm 26.9 ESE 12 17 1007.2 - 0.0 - Mostly clear 10 - - - -
29/01:00pm 26.7 ESE 12 17 1007.5 - 0.0 - Partly cloudy 10 - - - -
29/12:30pm 27.1 ESE 12 20 1007.8 - 0.0 - Partly cloudy 10 - - - -
29/12:00pm 26.6 ESE 11 18 1007.9 R 0.0 Fine Partly cloudy 40 - - - -
29/11:30am 26.1 ESE 10 17 1008.2 - 0.0 - Partly cloudy 10 - - - -
29/11:00am 26.8 E 11 18 1008.5 - 0.0 - Partly cloudy 10 - - - -
29/10:30am 25.8 ESE 9 16 1008.8 - 0.0 - Partly cloudy 10 - - - -
29/10:00am 26.0 SE 9 14 1008.8 - 0.0 - Mostly clear 10 - - - -
29/09:30am 24.4 SSE 6 9 1009.0 - 0.0 - Mostly clear 10 - - - -
29/08:30am 23.1 SSW 8 10 1008.8 - 1.4 - - 10 - - - -
29/08:00am 22.2 SSW 8 11 1008.6 - 1.4 - - 10 - - - -
29/07:30am 21.5 SSW 8 10 1008.4 - 1.4 - - 10 - - - -
29/07:00am 21.1 SSW 9 13 1008.3 - 1.4 - Partly cloudy 10 - - - -
29/06:30am 20.6 SSW 8 12 1008.2 - 1.4 - Cloudy 10 - - - -
29/06:00am 20.4 SSW 7 10 1007.8 S 1.4 Fine Mostly cloudy 30 - - - -
29/05:30am 20.5 S 8 11 1007.4 - 1.4 - Cloudy 10 - - - -
29/05:00am 20.2 S 7 10 1007.0 - 1.4 - Cloudy 10 - - - -
29/04:30am 19.6 SSW 8 10 1007.1 - 1.4 Showers Mostly cloudy 10 - - - -
29/04:00am 20.4 SSW 8 13 1006.9 - 1.4 - Cloudy 10 - - - -
29/03:30am 20.6 SSW 8 11 1006.8 - 1.4 - Cloudy 10 - - - -
29/02:30am 21.0 SSW 9 13 1006.6 - 1.4 - Partly cloudy 10 - - - -
29/02:00am 21.1 SSW 8 10 1006.8 - 1.4 - Partly cloudy 10 - - - -
29/01:30am 21.2 SSW 8 14 1006.9 - 1.4 - Mostly clear 10 - - - -
29/01:00am 21.3 SSW 7 9 1007.4 - 1.4 - Mostly clear 10 - - - -
29/12:30am 21.0 SSW 7 9 1007.6 - 1.4 - Partly cloudy 10 - - - -
 
Date/Time
EST
Temp

°C
Wind Pressure Rain
since 9am
mm
Weather Cloud Vis
km
Sea
Height
m
Swell
Dir
 
Speed
knots
Gust
knots
hPa Trend Height
m
Period
s
Dir
28/11:30pm 20.9 SSW 8 10 1008.0 - 1.4 - Mostly clear 10 - - - -
28/11:00pm 20.7 SSW 7 9 1008.2 - 1.4 - Mostly clear 10 - - - -
28/10:30pm 20.5 SSW 7 8 1008.0 - 1.4 - Mostly clear 10 - - - -
28/10:00pm 21.0 SSW 9 11 1007.9 - 1.4 - Mostly clear 10 - - - -
28/09:30pm 21.3 SSW 7 10 1008.0 - 1.4 - Mostly clear 10 - - - -
28/09:00pm 21.2 SSW 8 11 1008.0 F 1.4 Fine Mostly cloudy 30 - - - -
28/08:30pm 22.2 S 7 9 1007.7 - 1.4 - Partly cloudy 10 - - - -
28/08:00pm 22.7 SSE 9 16 1007.5 - 1.4 - Cloudy 10 - - - -
28/07:30pm 23.0 SSE 9 14 1007.2 - 1.4 - Mostly clear 10 - - - -
28/07:00pm 23.1 SSE 9 17 1007.4 - 1.4 - Mostly clear 10 - - - -
28/06:30pm 23.3 SSE 9 14 1006.9 - 1.4 - Mostly clear 10 - - - -
28/06:00pm 23.8 SSE 8 15 1006.6 R 1.4 Distant precip. Mostly cloudy 30 - - - -
28/05:30pm 24.1 S 9 16 1006.1 - 1.4 - Mostly clear 10 - - - -
28/05:00pm 24.2 S 8 15 1005.9 - 1.4 - Mostly clear 10 - - - -
28/04:30pm 24.2 SSE 7 11 1005.8 - 1.4 - Mostly clear 10 - - - -
28/04:00pm 23.7 S 9 14 1005.6 - 1.4 - Mostly clear 10 - - - -
28/03:30pm 23.1 SSE 10 15 1005.5 - 1.4 - Mostly clear 10 - - - -
28/03:00pm 22.4 SSE 10 17 1005.5 R 0.4 Showers Cloudy 25 - - - -
28/02:30pm 24.7 ESE 11 17 1005.3 - 0.0 Rain Mostly clear 10 - - - -
28/02:00pm 25.9 SE 5 7 1005.5 - 0.0 - Mostly clear 10 - - - -
28/01:30pm 26.4 S 7 13 1005.7 - 0.0 - Mostly clear 10 - - - -
28/01:00pm 25.5 S 8 12 1006.1 - 0.0 - Mostly clear 10 - - - -
28/12:30pm 25.1 SSW 8 12 1006.3 - 0.0 - Mostly clear 10 - - - -
28/12:00pm 24.6 SSW 9 13 1006.4 R 0.0 Distant precip. Cloudy 25 - - - -
28/11:30am 24.8 S 9 13 1006.4 - 0.0 - Mostly clear 10 - - - -
28/11:00am 23.8 S 9 12 1006.6 - 0.0 - Mostly clear 10 - - - -
28/10:30am 23.4 S 11 17 1006.6 - 0.0 - Mostly clear 10 - - - -
28/10:00am 22.5 S 10 15 1006.4 - 0.0 - Mostly clear 10 - - - -
28/09:30am 21.8 S 8 13 1006.6 - 0.0 Rain Mostly clear 10 - - - -
28/09:00am 20.9 SSW 11 15 1006.5 R 3.2 Rain Mostly cloudy 18 - - - -
28/08:30am 20.9 SSW 9 13 1006.4 - 3.0 - Mostly clear 10 - - - -
28/08:00am 20.5 S 7 11 1005.8 - 3.0 - Mostly clear 10 - - - -
28/07:30am 19.8 SSW 6 8 1006.1 - 3.0 Rain Mostly clear 10 - - - -
28/07:00am 19.6 SSW 7 10 1006.1 - 2.8 Rain Mostly clear 10 - - - -
28/06:30am 19.6 SSW 8 10 1005.9 - 2.6 Rain Mostly clear 10 - - - -
28/06:00am 19.7 SSW 7 9 1005.6 F 2.6 Distant precip. Cloudy 20 - - - -
28/05:30am 19.6 SSW 8 10 1005.5 - 2.6 - Partly cloudy 10 - - - -
28/05:00am 19.8 SSW 7 10 1005.3 - 2.6 Rain Mostly cloudy 10 - - - -
28/04:30am 19.9 SSW 8 10 1005.3 - 2.6 - Partly cloudy 10 - - - -
28/04:00am 20.2 SSW 8 10 1005.1 - 2.6 - Partly cloudy 10 - - - -
28/03:30am 20.5 S 6 8 1005.1 - 2.6 - Partly cloudy 10 - - - -
28/03:00am 20.9 S 6 10 1005.3 F 2.4 Recent precip. Mostly cloudy 15 - - - -
28/02:30am 20.9 S 6 8 1005.5 - 2.4 Rain Mostly clear 10 - - - -
28/02:00am 20.9 S 7 13 1005.7 - 2.4 Rain Mostly clear 10 - - - -
28/01:30am 21.2 S 9 13 1006.1 - 2.2 Rain Mostly clear 10 - - - -
28/01:00am 21.6 S 10 15 1006.5 - 1.8 Rain Mostly clear 10 - - - -
28/12:30am 22.1 S 6 9 1007.0 - 1.8 Rain Mostly clear 10 - - - -
28/12:00am 22.4 S 7 13 1007.1 R 1.6 Rain Cloudy 15 - - - -
 
Date/Time
EST
Temp

°C
Wind Pressure Rain
since 9am
mm
Weather Cloud Vis
km
Sea
Height
m
Swell
Dir
 
Speed
knots
Gust
knots
hPa Trend Height
m
Period
s
Dir
27/11:30pm 23.5 SSE 6 9 1007.1 - 1.0 Rain Mostly clear 10 - - - -
27/11:00pm 23.7 ESE 6 10 1007.1 - 0.8 Rain Mostly clear 10 - - - -
27/10:30pm 23.7 SE 6 12 1007.1 - 0.6 Rain Mostly clear 10 - - - -
27/10:00pm 24.0 ESE 6 9 1007.3 - 0.4 Rain Mostly clear 10 - - - -
27/09:30pm 24.8 ESE 7 10 1007.6 - 0.0 Showers Partly cloudy 10 - - - -
27/09:00pm 25.1 ESE 9 14 1007.1 F 0.0 Showers Mostly cloudy 15 - - - -
27/08:30pm 25.2 E 9 14 1006.9 - 0.0 Showers Partly cloudy 10 - - - -
27/08:00pm 25.5 E 9 16 1006.5 - 0.0 - Partly cloudy 10 - - - -
27/07:30pm 25.4 E 9 12 1006.1 - 0.0 - Partly cloudy 10 - - - -
27/07:00pm 25.6 E 9 14 1006.2 - 0.0 - Mostly clear 10 - - - -
27/06:30pm 25.7 ESE 9 15 1005.9 - 0.0 - Mostly clear 10 - - - -
27/06:00pm 25.9 ESE 9 16 1005.6 F 0.0 Distant precip. Mostly cloudy 15 - - - -
27/05:30pm 26.2 E 10 18 1005.0 - 0.0 - Mostly clear 10 - - - -
27/05:00pm 26.5 ESE 10 16 1004.9 - 0.0 - Mostly clear 10 - - - -
27/04:30pm 26.5 ESE 11 18 1004.7 - 0.0 - Mostly clear 10 - - - -
27/04:00pm 26.9 E 11 17 1004.7 - 0.0 - Mostly clear 10 - - - -
27/03:30pm 27.5 E 12 20 1005.0 - 0.0 - Mostly clear 10 - - - -
27/03:00pm 27.1 E 11 17 1005.3 F 0.0 Distant precip. Partly cloudy 15 - - - -
27/02:30pm 28.4 E 11 16 1005.6 - 0.0 - Partly cloudy 10 - - - -
27/02:00pm 28.4 ESE 11 16 1005.8 - 0.0 - Partly cloudy 10 - - - -
27/01:30pm 27.7 E 10 16 1006.2 - 0.0 - Partly cloudy 10 - - - -
27/01:00pm 28.8 E 10 17 1006.4 - 0.0 - Mostly clear 10 - - - -
27/12:30pm 28.1 E 11 17 1006.7 - 0.0 - Partly cloudy 10 - - - -
27/12:00pm 27.6 ESE 9 15 1007.2 R 0.0 Distant precip. Partly cloudy 15 - - - -
27/11:30am 28.3 ESE 12 18 1007.7 - 0.0 Showers Mostly clear 10 - - - -
27/11:00am 29.0 ESE 11 17 1007.9 - 0.0 Showers Mostly clear 10 - - - -
27/10:30am 27.6 ESE 11 19 1008.2 - 0.0 - Mostly clear 10 - - - -
27/10:00am 28.4 ESE 10 16 1008.1 - 0.0 - Mostly clear 10 - - - -
27/09:30am 28.0 ESE 10 16 1008.2 - 0.0 - Mostly clear 10 - - - -
27/09:00am 28.7 ESE 8 12 1007.8 F 0.0 Distant precip. Partly cloudy 30 - - - -
27/08:30am 27.0 ESE 9 14 1007.8 - 0.0 - Mostly clear 10 - - - -
27/08:00am 27.7 E 8 13 1007.7 - 0.0 - Mostly clear 10 - - - -
27/07:30am 27.2 E 8 12 1007.7 - 0.0 - Mostly clear 10 - - - -
27/07:00am 26.8 E 8 12 1007.5 - 0.0 - Mostly clear 10 - - - -
27/06:30am 26.5 E 7 11 1007.6 - 0.0 - Partly cloudy 10 - - - -
27/06:00am 25.9 E 7 10 1007.5 R 0.0 Haze Partly cloudy 25 - - - -
27/05:30am 25.4 E 5 8 1007.1 - 0.0 - Partly cloudy 10 - - - -
27/05:00am 25.5 ESE 7 9 1006.9 - 0.0 - Partly cloudy 10 - - - -
27/04:30am 25.6 ESE 7 11 1006.5 - 0.0 - Mostly clear 10 - - - -
27/04:00am 25.6 ESE 8 15 1006.4 - 0.0 - Mostly clear 10 - - - -
27/03:30am 25.4 ESE 7 13 1006.2 - 0.0 - Mostly clear 10 - - - -
27/03:00am 25.7 ESE 9 14 1006.1 F 0.0 Haze Mostly cloudy 30 - - - -
27/02:30am 25.9 ESE 10 15 1005.9 - 0.0 - Mostly clear 10 - - - -
27/02:00am 25.9 ESE 7 11 1006.3 - 0.0 - Partly cloudy 10 - - - -
27/01:30am 26.0 ESE 7 11 1006.4 - 0.0 - Mostly clear 10 - - - -
27/01:00am 25.9 SE 5 9 1006.9 - 0.0 - Mostly clear 10 - - - -
27/12:30am 26.1 E 6 9 1007.4 - 0.0 - Partly cloudy 10 - - - -
27/12:00am 26.1 E 6 8 1007.7 F 0.0 Haze Mostly cloudy 25 - - - -
 
Date/Time
EST
Temp

°C
Wind Pressure Rain
since 9am
mm
Weather Cloud Vis
km
Sea
Height
m
Swell
Dir
 
Speed
knots
Gust
knots
hPa Trend Height
m
Period
s
Dir
26/11:30pm 26.2 E 6 10 1008.2 - 0.0 - Partly cloudy 10 - - - -
26/11:00pm 26.3 ESE 7 10 1008.3 - 0.0 - Mostly clear 10 - - - -
26/10:30pm 26.4 ESE 8 11 1008.3 - 0.0 - Partly cloudy 10 - - - -
26/10:00pm 26.5 ESE 7 11 1008.3 - 0.0 - Mostly clear 10 - - - -
26/09:30pm 26.6 ESE 9 14 1008.4 - 0.0 - Partly cloudy 10 - - - -
26/09:00pm 26.6 ESE 9 15 1008.4 R 0.0 Haze Mostly cloudy 25 - - - -
26/08:30pm 26.8 SE 8 13 1008.6 - 0.0 - Partly cloudy 10 - - - -
26/08:00pm 26.9 ESE 10 16 1008.6 - 0.0 - Partly cloudy 10 - - - -
26/07:30pm 27.0 ESE 11 19 1008.2 - 0.0 - Partly cloudy 10 - - - -
26/07:00pm 27.1 SE 10 17 1008.0 - 0.0 - Partly cloudy 10 - - - -
26/06:30pm 27.2 ESE 11 17 1006.9 - 0.0 - Partly cloudy 10 - - - -
26/06:00pm 27.3 ESE 12 18 1006.3 R 0.0 Haze Cloudy 25 - - - -
26/05:30pm 27.8 ESE 11 17 1006.4 - 0.0 - Partly cloudy 10 - - - -
26/05:00pm 28.1 ESE 8 15 1006.1 - 0.0 - Partly cloudy 10 - - - -
26/04:30pm 28.4 SE 9 14 1005.5 - 0.0 - Mostly clear 10 - - - -
26/04:00pm 28.8 ESE 10 19 1005.3 - 0.0 - Mostly clear 10 - - - -
26/03:30pm 29.8 E 10 16 1005.5 - 0.0 - Mostly clear 10 - - - -
26/03:00pm 30.1 ESE 9 15 1005.3 F 0.0 Haze Mostly cloudy 20 - - - -
26/02:30pm 29.2 ESE 9 15 1005.3 - 0.0 - Mostly clear 10 - - - -

Other Formats:

Comma delimited format used in spreadsheet applications
http://www.bom.gov.au/fwo/IDQ60701/IDQ60701.94578.axf

JavaScript Object Notation format (JSON) in row-major order
http://www.bom.gov.au/fwo/IDQ60701/IDQ60701.94578.json